Time;durP1;ratioP1;P1;durP2;ratioP2;P2;SDS_P1;SDS_P2;PMS_P1;PMS_P2;Temp;Humidity;BMP_temperature;BMP_pressure;BME280_temperature;BME280_humidity;BME280_pressure;Samples;Min_cycle;Max_cycle;Signal;HPM_P1;HPM_P2
2021/12/04 00:02:04;;;;;;;5.03;2.40;;;;;;;;;;5071620;28;20062;-69
2021/12/04 00:04:33;;;;;;;4.68;2.25;;;;;;;;;;5072036;28;20579;-68
2021/12/04 00:07:00;;;;;;;5.15;2.20;;;;;;;;;;5071457;28;20057;-69
2021/12/04 00:09:29;;;;;;;4.57;1.90;;;;;;;;;;5071626;28;20118;-69
2021/12/04 00:11:59;;;;;;;5.50;1.90;;;;;;;;;;5071397;28;20083;-68
2021/12/04 00:14:27;;;;;;;9.90;2.50;;;;;;;;;;5071869;28;20052;-70
2021/12/04 00:16:55;;;;;;;4.63;1.98;;;;;;;;;;5071519;28;20049;-67
2021/12/04 00:19:22;;;;;;;4.18;1.80;;;;;;;;;;5071437;28;20051;-67
2021/12/04 00:21:49;;;;;;;4.13;1.92;;;;;;;;;;5073050;28;20083;-69
2021/12/04 00:24:16;;;;;;;5.70;2.33;;;;;;;;;;5075324;28;20052;-69
2021/12/04 00:26:44;;;;;;;4.65;2.67;;;;;;;;;;5075091;28;20064;-70
2021/12/04 00:29:12;;;;;;;6.18;2.40;;;;;;;;;;5074890;28;20049;-68
2021/12/04 00:31:45;;;;;;;4.70;2.00;;;;;;;;;;5075136;28;20052;-69
2021/12/04 00:34:12;;;;;;;4.80;2.00;;;;;;;;;;5075527;28;20049;-69
2021/12/04 00:36:54;;;;;;;3.80;2.00;;;;;;;;;;5074848;28;20045;-68
2021/12/04 00:50:22;;;;;;;5.72;1.95;;;;;;;;;;5074837;28;20056;-69
2021/12/04 00:52:49;;;;;;;6.75;2.25;;;;;;;;;;5074446;28;20040;-69
2021/12/04 00:55:16;;;;;;;5.05;2.00;;;;;;;;;;5074465;28;20540;-69
2021/12/04 00:57:43;;;;;;;4.75;2.17;;;;;;;;;;5074146;28;20480;-69
2021/12/04 01:00:12;;;;;;;4.32;1.92;;;;;;;;;;5074411;28;20044;-70
2021/12/04 01:02:39;;;;;;;5.18;2.30;;;;;;;;;;5074337;28;20048;-68
2021/12/04 01:05:07;;;;;;;4.18;2.15;;;;;;;;;;5074405;28;20051;-69
2021/12/04 01:07:34;;;;;;;7.80;1.80;;;;;;;;;;5074302;28;20494;-68
2021/12/04 01:10:03;;;;;;;5.35;1.75;;;;;;;;;;5074182;28;20056;-69
2021/12/04 01:12:30;;;;;;;3.33;1.75;;;;;;;;;;5074366;28;20401;-69
2021/12/04 01:14:57;;;;;;;8.70;1.90;;;;;;;;;;5074098;28;20048;-68
2021/12/04 01:17:25;;;;;;;5.97;1.90;;;;;;;;;;5073966;28;20056;-69
2021/12/04 01:19:53;;;;;;;4.30;1.75;;;;;;;;;;5073835;28;20055;-68
2021/12/04 01:22:21;;;;;;;4.05;1.77;;;;;;;;;;5074308;28;20049;-69
2021/12/04 01:24:48;;;;;;;3.58;1.85;;;;;;;;;;5073993;28;20056;-69
2021/12/04 01:27:15;;;;;;;3.38;1.73;;;;;;;;;;5074160;28;20512;-68
2021/12/04 01:29:42;;;;;;;3.67;1.48;;;;;;;;;;5073784;28;20048;-68
2021/12/04 01:32:09;;;;;;;3.35;1.63;;;;;;;;;;5073703;28;20053;-69
2021/12/04 01:34:38;;;;;;;3.72;1.85;;;;;;;;;;5073635;28;20102;-69
2021/12/04 01:37:06;;;;;;;3.97;1.88;;;;;;;;;;5073805;28;20509;-68
2021/12/04 01:39:33;;;;;;;7.78;1.90;;;;;;;;;;5073480;28;20044;-69
2021/12/04 01:42:00;;;;;;;5.53;1.92;;;;;;;;;;5073586;28;20048;-68
2021/12/04 01:44:27;;;;;;;3.45;1.50;;;;;;;;;;5072972;28;20113;-69
2021/12/04 01:46:56;;;;;;;2.70;1.30;;;;;;;;;;5073427;28;20044;-68
2021/12/04 01:49:23;;;;;;;2.80;1.33;;;;;;;;;;5073497;28;20048;-68
2021/12/04 01:51:51;;;;;;;4.32;1.70;;;;;;;;;;5073795;28;20045;-69
2021/12/04 01:54:18;;;;;;;2.95;1.60;;;;;;;;;;5073632;28;20059;-69
2021/12/04 01:56:46;;;;;;;3.58;1.60;;;;;;;;;;5073607;28;20075;-68
2021/12/04 01:59:12;;;;;;;3.20;1.30;;;;;;;;;;5073024;28;20052;-69
2021/12/04 02:01:39;;;;;;;2.33;1.27;;;;;;;;;;5073145;28;20059;-69
2021/12/04 02:04:06;;;;;;;3.08;1.40;;;;;;;;;;5073270;28;20056;-69
2021/12/04 02:06:33;;;;;;;2.35;1.35;;;;;;;;;;5073272;28;20513;-68
2021/12/04 02:09:02;;;;;;;3.05;1.38;;;;;;;;;;5072799;28;20048;-68
2021/12/04 02:11:29;;;;;;;3.63;1.60;;;;;;;;;;5073051;28;20048;-69
2021/12/04 02:13:56;;;;;;;3.55;1.40;;;;;;;;;;5072937;28;20049;-69
2021/12/04 02:16:24;;;;;;;3.40;1.25;;;;;;;;;;5072765;28;20044;-69
2021/12/04 02:18:51;;;;;;;2.38;1.25;;;;;;;;;;5072425;28;20052;-68
2021/12/04 02:21:19;;;;;;;3.40;1.30;;;;;;;;;;5072557;28;20052;-69
2021/12/04 02:23:46;;;;;;;4.72;1.60;;;;;;;;;;5072604;28;20410;-68
2021/12/04 02:26:14;;;;;;;3.10;1.40;;;;;;;;;;5072438;28;20052;-69
2021/12/04 02:28:43;;;;;;;3.33;1.60;;;;;;;;;;5072296;28;20052;-69
2021/12/04 02:31:10;;;;;;;2.83;1.55;;;;;;;;;;5072440;28;20045;-69
2021/12/04 02:33:37;;;;;;;4.38;1.73;;;;;;;;;;5072531;28;20044;-69
2021/12/04 02:36:07;;;;;;;2.85;1.30;;;;;;;;;;5072245;28;20501;-68
2021/12/04 02:38:36;;;;;;;3.47;1.45;;;;;;;;;;5072144;28;20072;-67
2021/12/04 02:41:05;;;;;;;4.03;1.83;;;;;;;;;;5072130;28;20049;-67
2021/12/04 02:43:34;;;;;;;3.50;1.27;;;;;;;;;;5072512;28;20083;-67
2021/12/04 02:46:01;;;;;;;4.80;1.70;;;;;;;;;;5072472;28;20063;-68
2021/12/04 02:48:28;;;;;;;3.33;1.52;;;;;;;;;;5072270;28;20408;-69
2021/12/04 02:50:56;;;;;;;4.60;1.80;;;;;;;;;;5072574;28;20053;-69
2021/12/04 02:53:23;;;;;;;3.05;1.23;;;;;;;;;;5072484;28;20053;-69
2021/12/04 02:55:53;;;;;;;2.50;1.40;;;;;;;;;;5073069;28;20067;-70
2021/12/04 02:58:20;;;;;;;5.43;1.63;;;;;;;;;;5073372;28;20052;-70
2021/12/04 03:00:50;;;;;;;5.63;1.80;;;;;;;;;;5073196;28;20094;-71
2021/12/04 03:03:19;;;;;;;4.10;1.52;;;;;;;;;;5073148;28;20106;-70
2021/12/04 03:05:49;;;;;;;2.70;1.38;;;;;;;;;;5072953;28;20052;-70
2021/12/04 03:08:17;;;;;;;3.40;1.33;;;;;;;;;;5073257;28;20053;-70
2021/12/04 03:10:44;;;;;;;4.50;1.40;;;;;;;;;;5073351;28;20098;-70
2021/12/04 03:13:12;;;;;;;3.28;1.63;;;;;;;;;;5073071;28;20059;-70
2021/12/04 03:15:42;;;;;;;4.28;1.40;;;;;;;;;;5073844;28;20076;-70
2021/12/04 03:18:09;;;;;;;2.90;1.48;;;;;;;;;;5072339;28;20052;-69
2021/12/04 03:20:41;;;;;;;3.08;1.42;;;;;;;;;;5072037;28;20094;-70
2021/12/04 03:23:15;;;;;;;2.08;1.23;;;;;;;;;;5072014;28;20056;-69
2021/12/04 03:25:44;;;;;;;3.17;1.50;;;;;;;;;;5072082;28;20067;-69
2021/12/04 03:28:15;;;;;;;3.08;1.58;;;;;;;;;;5072122;28;20053;-70
2021/12/04 03:30:46;;;;;;;;;;;;;;;;;;5072269;28;20056;-69
2021/12/04 03:41:26;;;;;;;2.95;1.63;;;;;;;;;;5072020;28;20539;-70
2021/12/04 03:43:54;;;;;;;3.85;1.20;;;;;;;;;;5072344;28;20044;-70
2021/12/04 03:46:21;;;;;;;2.67;1.30;;;;;;;;;;5071977;28;20041;-70
2021/12/04 03:48:51;;;;;;;3.97;1.55;;;;;;;;;;5071994;28;20535;-69
2021/12/04 03:51:20;;;;;;;3.17;1.48;;;;;;;;;;5071645;28;20052;-69
2021/12/04 03:53:48;;;;;;;3.60;1.40;;;;;;;;;;5071582;28;20048;-69
2021/12/04 03:56:19;;;;;;;4.03;1.25;;;;;;;;;;5072538;28;20059;-70
2021/12/04 03:58:46;;;;;;;3.00;1.50;;;;;;;;;;5075981;28;20057;-70
2021/12/04 04:01:14;;;;;;;2.47;1.48;;;;;;;;;;5075536;28;20066;-67
2021/12/04 04:03:41;;;;;;;3.50;1.50;;;;;;;;;;5075914;28;20055;-68
2021/12/04 04:06:08;;;;;;;4.20;1.55;;;;;;;;;;5075048;28;20048;-68
2021/12/04 04:08:35;;;;;;;3.90;1.70;;;;;;;;;;5074881;28;20404;-68
2021/12/04 04:11:02;;;;;;;2.75;1.20;;;;;;;;;;5075212;28;20051;-66
2021/12/04 04:13:29;;;;;;;2.95;1.70;;;;;;;;;;5074993;28;20417;-67
2021/12/04 04:15:58;;;;;;;3.35;2.40;;;;;;;;;;5075422;28;20070;-67
2021/12/04 04:18:27;;;;;;;2.47;1.35;;;;;;;;;;5074782;28;20062;-67
2021/12/04 04:20:54;;;;;;;4.35;1.30;;;;;;;;;;5075087;28;20052;-67
2021/12/04 04:23:21;;;;;;;3.05;1.60;;;;;;;;;;5075258;28;20542;-67
2021/12/04 04:25:48;;;;;;;2.80;1.15;;;;;;;;;;5075278;28;20059;-67
2021/12/04 04:28:15;;;;;;;4.70;1.40;;;;;;;;;;5075018;28;20060;-66
2021/12/04 04:30:42;;;;;;;2.90;1.30;;;;;;;;;;5075392;28;20063;-68
2021/12/04 04:33:11;;;;;;;3.38;1.48;;;;;;;;;;5075205;28;20067;-68
2021/12/04 04:35:40;;;;;;;3.47;1.40;;;;;;;;;;5075662;28;20056;-68
2021/12/04 04:38:19;;;;;;;3.13;1.40;;;;;;;;;;5075199;28;20045;-68
2021/12/04 05:00:25;;;;;;;3.58;1.40;;;;;;;;;;5017289;28;20057;-69
2021/12/04 05:11:10;;;;;;;2.38;1.00;;;;;;;;;;5074037;28;20059;-69
2021/12/04 05:13:38;;;;;;;3.25;1.40;;;;;;;;;;5074380;28;20161;-68
2021/12/04 05:16:13;;;;;;;2.20;1.20;;;;;;;;;;5074050;28;20048;-69
2021/12/04 05:18:43;;;;;;;2.30;1.27;;;;;;;;;;5073483;28;20052;-69
2021/12/04 05:21:13;;;;;;;2.13;1.40;;;;;;;;;;5074245;28;20079;-69
2021/12/04 05:23:44;;;;;;;2.33;1.08;;;;;;;;;;5074020;28;20052;-69
2021/12/04 05:26:14;;;;;;;3.47;1.08;;;;;;;;;;5073946;28;20048;-69
2021/12/04 05:28:41;;;;;;;1.98;1.10;;;;;;;;;;5073461;28;20048;-69
2021/12/04 05:31:09;;;;;;;2.17;1.10;;;;;;;;;;5073744;28;20048;-69
2021/12/04 05:33:36;;;;;;;3.28;1.25;;;;;;;;;;5073924;28;20052;-68
2021/12/04 05:36:05;;;;;;;2.75;1.55;;;;;;;;;;5073378;28;20053;-69
2021/12/04 05:38:32;;;;;;;2.67;1.40;;;;;;;;;;5073414;28;20102;-69
2021/12/04 05:41:00;;;;;;;2.72;1.10;;;;;;;;;;5073580;28;20052;-69
2021/12/04 05:43:28;;;;;;;1.88;0.90;;;;;;;;;;5073323;28;20131;-69
2021/12/04 05:46:00;;;;;;;2.72;1.30;;;;;;;;;;5073589;28;20088;-68
2021/12/04 05:48:35;;;;;;;2.28;1.20;;;;;;;;;;5072900;28;20140;-68
2021/12/04 05:56:30;;;;;;;2.00;1.13;;;;;;;;;;5091416;28;20492;-65
2021/12/04 05:58:57;;;;;;;2.17;1.10;;;;;;;;;;5092698;28;20507;-65
2021/12/04 06:01:25;;;;;;;3.45;1.20;;;;;;;;;;5093129;28;20040;-65
2021/12/04 06:03:52;;;;;;;2.60;0.90;;;;;;;;;;5093050;28;20052;-65
2021/12/04 06:06:20;;;;;;;1.85;1.08;;;;;;;;;;5093135;28;20052;-65
2021/12/04 06:08:47;;;;;;;2.47;1.20;;;;;;;;;;5093279;28;20412;-65
2021/12/04 06:11:14;;;;;;;2.33;1.15;;;;;;;;;;5093193;28;20055;-65
2021/12/04 06:13:43;;;;;;;3.72;1.40;;;;;;;;;;5093080;28;20070;-64
2021/12/04 06:16:11;;;;;;;2.95;1.50;;;;;;;;;;5092863;28;20044;-65
2021/12/04 06:18:38;;;;;;;3.58;1.50;;;;;;;;;;5092246;28;20044;-65
2021/12/04 06:23:49;;;;;;;2.50;1.10;;;;;;;;;;5093606;28;20595;-64
2021/12/04 06:26:16;;;;;;;3.45;1.40;;;;;;;;;;5092973;28;20047;-64
2021/12/04 06:28:44;;;;;;;2.83;1.40;;;;;;;;;;5092368;28;20050;-65
2021/12/04 06:31:14;;;;;;;2.53;1.33;;;;;;;;;;5092583;28;20109;-65
2021/12/04 06:33:41;;;;;;;2.25;1.30;;;;;;;;;;5093062;28;20059;-65
2021/12/04 06:36:09;;;;;;;2.90;1.50;;;;;;;;;;5092744;28;20055;-64
2021/12/04 06:38:37;;;;;;;2.83;1.20;;;;;;;;;;5092482;28;20082;-65
2021/12/04 06:41:04;;;;;;;2.45;1.23;;;;;;;;;;5092440;28;20044;-65
2021/12/04 06:43:32;;;;;;;2.13;1.13;;;;;;;;;;5092375;28;20052;-64
2021/12/04 06:46:01;;;;;;;3.47;1.35;;;;;;;;;;5092671;28;20079;-65
2021/12/04 06:48:39;;;;;;;3.50;1.35;;;;;;;;;;5092271;28;20044;-66
2021/12/04 06:51:12;;;;;;;3.15;1.35;;;;;;;;;;5092503;28;20083;-65
2021/12/04 06:53:43;;;;;;;4.28;1.65;;;;;;;;;;5092932;28;20090;-65
2021/12/04 06:56:12;;;;;;;2.17;1.20;;;;;;;;;;5092364;28;20060;-65
2021/12/04 06:58:39;;;;;;;3.13;1.55;;;;;;;;;;5092756;28;20047;-65
2021/12/04 07:01:10;;;;;;;3.00;1.40;;;;;;;;;;5092546;28;20088;-65
2021/12/04 07:03:38;;;;;;;3.20;1.30;;;;;;;;;;5092522;28;20062;-65
2021/12/04 07:06:05;;;;;;;3.45;1.38;;;;;;;;;;5092886;28;20071;-65
2021/12/04 07:08:32;;;;;;;3.30;1.70;;;;;;;;;;5092612;28;20135;-65
2021/12/04 07:10:59;;;;;;;4.40;1.70;;;;;;;;;;5092424;28;20413;-65
2021/12/04 07:13:27;;;;;;;3.10;1.50;;;;;;;;;;5092553;28;20097;-64
2021/12/04 07:16:01;;;;;;;3.85;1.50;;;;;;;;;;5092096;28;20515;-64
2021/12/04 07:18:30;;;;;;;4.18;2.00;;;;;;;;;;5091769;28;20436;-63
2021/12/04 07:20:57;;;;;;;7.80;3.50;;;;;;;;;;5091900;28;20054;-64
2021/12/04 07:23:24;;;;;;;4.72;2.45;;;;;;;;;;5092186;28;20127;-65
2021/12/04 07:25:51;;;;;;;6.20;3.55;;;;;;;;;;5092049;28;20129;-65
2021/12/04 07:28:18;;;;;;;6.40;3.15;;;;;;;;;;5092213;28;20076;-64
2021/12/04 07:30:46;;;;;;;4.45;1.95;;;;;;;;;;5093557;28;20059;-65
2021/12/04 07:33:13;;;;;;;2.80;1.42;;;;;;;;;;5096387;28;20568;-65
2021/12/04 07:35:41;;;;;;;4.53;2.55;;;;;;;;;;5096105;28;20135;-65
2021/12/04 07:38:10;;;;;;;9.80;4.72;;;;;;;;;;5095702;28;20052;-66
2021/12/04 07:40:38;;;;;;;14.10;6.57;;;;;;;;;;5096462;28;20047;-64
2021/12/04 07:43:05;;;;;;;5.82;3.00;;;;;;;;;;5096400;28;20048;-66
2021/12/04 07:45:33;;;;;;;5.55;2.83;;;;;;;;;;5096504;28;20052;-66
2021/12/04 07:48:00;;;;;;;4.65;2.45;;;;;;;;;;5095479;28;20048;-64
2021/12/04 07:50:27;;;;;;;2.30;1.45;;;;;;;;;;5095924;28;20158;-65
2021/12/04 07:52:55;;;;;;;4.63;1.77;;;;;;;;;;5095765;28;20083;-65
2021/12/04 07:55:23;;;;;;;3.88;1.85;;;;;;;;;;5095381;28;20098;-65
2021/12/04 07:57:50;;;;;;;3.60;1.67;;;;;;;;;;5095472;28;20404;-66
2021/12/04 08:00:19;;;;;;;4.82;1.92;;;;;;;;;;5095902;28;20121;-65
2021/12/04 08:02:48;;;;;;;4.97;2.17;;;;;;;;;;5095675;28;20040;-66
2021/12/04 08:05:16;;;;;;;3.15;1.60;;;;;;;;;;5095760;28;20447;-64
2021/12/04 08:07:43;;;;;;;4.97;2.05;;;;;;;;;;5095212;28;20240;-64
2021/12/04 08:10:13;;;;;;;5.63;2.00;;;;;;;;;;5095359;28;20040;-65
2021/12/04 08:12:41;;;;;;;3.55;1.83;;;;;;;;;;5095389;28;20055;-65
2021/12/04 08:15:10;;;;;;;6.10;2.25;;;;;;;;;;5095073;28;20048;-64
2021/12/04 08:17:38;;;;;;;5.25;1.85;;;;;;;;;;5094807;28;20131;-64
2021/12/04 08:20:06;;;;;;;4.68;2.15;;;;;;;;;;5095004;28;20070;-65
2021/12/04 08:22:34;;;;;;;4.25;1.63;;;;;;;;;;5094584;28;20499;-65
2021/12/04 08:25:02;;;;;;;5.40;2.05;;;;;;;;;;5095170;28;20511;-65
2021/12/04 08:27:30;;;;;;;5.55;2.10;;;;;;;;;;5094296;28;20048;-65
2021/12/04 08:29:57;;;;;;;6.30;2.10;;;;;;;;;;5094744;28;20143;-65
2021/12/04 08:32:25;;;;;;;6.10;1.90;;;;;;;;;;5094818;28;20052;-65
2021/12/04 08:34:52;;;;;;;3.70;1.80;;;;;;;;;;5094931;28;20463;-65
2021/12/04 08:37:20;;;;;;;8.38;2.53;;;;;;;;;;5094929;28;20413;-65
2021/12/04 08:39:48;;;;;;;4.22;2.10;;;;;;;;;;5094580;28;20048;-64
2021/12/04 08:42:15;;;;;;;4.20;1.85;;;;;;;;;;5094239;28;20485;-65
2021/12/04 08:44:44;;;;;;;3.67;1.90;;;;;;;;;;5094799;28;20044;-65
2021/12/04 08:47:11;;;;;;;5.05;2.25;;;;;;;;;;5094730;28;20044;-65
2021/12/04 08:49:38;;;;;;;5.95;2.08;;;;;;;;;;5094362;28;20050;-65
2021/12/04 08:52:07;;;;;;;4.32;2.00;;;;;;;;;;5094568;28;20473;-65
2021/12/04 08:54:35;;;;;;;6.20;2.13;;;;;;;;;;5094242;28;20048;-65
2021/12/04 08:57:03;;;;;;;5.68;2.10;;;;;;;;;;5094766;28;20080;-65
2021/12/04 08:59:32;;;;;;;6.05;2.42;;;;;;;;;;5094081;28;20055;-65
2021/12/04 09:02:01;;;;;;;5.40;2.15;;;;;;;;;;5094901;28;20064;-65
2021/12/04 09:04:31;;;;;;;4.18;2.28;;;;;;;;;;5094175;28;20057;-65
2021/12/04 09:06:59;;;;;;;5.40;2.20;;;;;;;;;;5094479;28;20577;-65
2021/12/04 09:09:28;;;;;;;5.55;2.58;;;;;;;;;;5093827;28;20052;-65
2021/12/04 09:11:59;;;;;;;4.15;2.15;;;;;;;;;;5094496;28;20520;-65
2021/12/04 09:14:26;;;;;;;;;;;;;;;;;;5094569;28;20051;-65
2021/12/04 09:16:56;;;;;;;5.65;2.28;;;;;;;;;;5094324;28;19927;-65
2021/12/04 09:19:25;;;;;;;4.93;2.28;;;;;;;;;;5093864;28;20044;-66
2021/12/04 09:21:52;;;;;;;3.90;1.90;;;;;;;;;;5094036;28;20050;-65
2021/12/04 09:24:25;;;;;;;4.53;2.30;;;;;;;;;;5094241;28;20546;-65
2021/12/04 09:26:57;;;;;;;5.25;2.70;;;;;;;;;;5093856;28;20101;-65
2021/12/04 09:59:59;;;;;;;6.45;3.25;;;;;;;;;;5073006;28;20105;-65
2021/12/04 10:02:36;;;;;;;7.53;3.67;;;;;;;;;;5072992;28;20056;-65
2021/12/04 10:05:21;;;;;;;7.28;3.60;;;;;;;;;;5072521;28;20051;-65
2021/12/04 10:16:40;;;;;;;10.77;4.40;;;;;;;;;;5072936;28;20513;-65
2021/12/04 10:33:26;;;;;;;6.05;3.67;;;;;;;;;;5072636;28;20055;-65
2021/12/04 10:35:54;;;;;;;7.68;4.45;;;;;;;;;;5072299;28;20048;-65
2021/12/04 10:38:24;;;;;;;6.47;3.38;;;;;;;;;;5072307;28;20057;-65
2021/12/04 10:40:54;;;;;;;5.63;2.70;;;;;;;;;;5072117;28;20044;-65
2021/12/04 10:43:23;;;;;;;5.55;2.72;;;;;;;;;;5072620;28;20696;-65
2021/12/04 10:45:54;;;;;;;4.80;2.50;;;;;;;;;;5072207;28;20098;-65
2021/12/04 10:48:26;;;;;;;5.10;2.35;;;;;;;;;;5072243;28;20044;-65
2021/12/04 10:50:59;;;;;;;5.72;2.35;;;;;;;;;;5072168;28;20151;-66
2021/12/04 10:53:29;;;;;;;5.80;2.40;;;;;;;;;;5072345;28;20055;-65
2021/12/04 10:56:09;;;;;;;5.30;2.17;;;;;;;;;;5072512;28;20049;-65
2021/12/04 11:01:44;;;;;;;3.75;1.77;;;;;;;;;;5072352;28;20056;-65
2021/12/04 11:04:25;;;;;;;4.15;1.92;;;;;;;;;;5072582;28;20048;-65
2021/12/04 11:21:14;;;;;;;3.72;1.52;;;;;;;;;;5072279;28;20059;-67
2021/12/04 11:24:01;;;;;;;3.65;1.90;;;;;;;;;;5071993;28;20048;-65
2021/12/04 11:26:51;;;;;;;4.18;2.00;;;;;;;;;;5078735;28;20126;-66
2021/12/04 11:35:20;;;;;;;4.15;2.50;;;;;;;;;;5092322;28;20647;-66
2021/12/04 11:40:50;;;;;;;6.43;2.20;;;;;;;;;;5091532;28;20131;-67
2021/12/04 11:43:21;;;;;;;4.85;2.03;;;;;;;;;;5092254;28;20048;-67
2021/12/04 11:46:02;;;;;;;4.88;2.30;;;;;;;;;;5092668;28;20059;-67
2021/12/04 11:48:30;;;;;;;4.63;2.63;;;;;;;;;;5092788;28;20080;-66
2021/12/04 11:50:57;;;;;;;5.15;2.72;;;;;;;;;;5092897;28;20473;-66
2021/12/04 11:53:25;;;;;;;4.25;2.50;;;;;;;;;;5091676;28;20249;-67
2021/12/04 11:55:52;;;;;;;4.30;2.03;;;;;;;;;;5092032;28;20055;-68
2021/12/04 11:58:25;;;;;;;5.20;2.70;;;;;;;;;;5113981;22;20059;-78
2021/12/04 12:00:57;;;;;;;4.03;1.92;;;;;;;;;;5115151;28;20048;-80
2021/12/04 12:03:27;;;;;;;5.25;2.63;;;;;;;;;;5114075;28;20478;-81
2021/12/04 12:05:56;;;;;;;4.35;2.10;;;;;;;;;;5107406;28;20061;-82
2021/12/04 12:08:30;;;;;;;4.07;2.30;;;;;;;;;;5103674;28;20494;-80
2021/12/04 12:10:59;;;;;;;12.05;5.07;;;;;;;;;;5088557;28;20044;-80
2021/12/04 12:13:29;;;;;;;4.68;2.42;;;;;;;;;;5085945;28;20121;-81
2021/12/04 12:16:08;;;;;;;4.85;2.45;;;;;;;;;;5086297;28;20097;-80
2021/12/04 12:18:49;;;;;;;6.32;2.88;;;;;;;;;;5086245;28;20425;-81
2021/12/04 12:21:20;;;;;;;4.10;1.50;;;;;;;;;;5087843;28;20055;-80
2021/12/04 12:26:56;;;;;;;6.13;2.28;;;;;;;;;;5089915;28;20129;-80
2021/12/04 12:32:52;;;;;;;3.42;1.90;;;;;;;;;;4998439;28;20053;-81
2021/12/04 12:38:11;;;;;;;3.47;1.50;;;;;;;;;;5060482;28;20078;-81
2021/12/04 12:40:38;;;;;;;2.58;1.35;;;;;;;;;;5088971;28;20097;-80
2021/12/04 12:43:19;;;;;;;3.60;1.50;;;;;;;;;;5087828;28;20040;-80
2021/12/04 12:45:54;;;;;;;3.10;1.38;;;;;;;;;;5088364;28;20049;-81
2021/12/04 12:48:22;;;;;;;3.20;1.45;;;;;;;;;;5087612;28;20053;-80
2021/12/04 12:50:49;;;;;;;2.67;1.23;;;;;;;;;;5095475;28;20052;-81
2021/12/04 12:53:19;;;;;;;3.90;1.10;;;;;;;;;;5084465;28;20679;-80
2021/12/04 12:55:49;;;;;;;2.50;1.15;;;;;;;;;;5084334;28;20044;-80
2021/12/04 12:58:20;;;;;;;5.93;2.03;;;;;;;;;;5084462;28;20044;-80
2021/12/04 13:11:56;;;;;;;3.78;1.05;;;;;;;;;;5084550;28;20051;-80
2021/12/04 13:14:25;;;;;;;2.38;1.00;;;;;;;;;;5084333;28;20503;-80
2021/12/04 13:16:58;;;;;;;2.25;1.15;;;;;;;;;;5084164;28;20073;-80
2021/12/04 13:19:26;;;;;;;3.20;1.00;;;;;;;;;;5081698;28;20087;-80
2021/12/04 13:21:57;;;;;;;3.05;1.35;;;;;;;;;;5080957;28;20785;-81
2021/12/04 13:24:27;;;;;;;2.15;1.02;;;;;;;;;;5080665;28;20102;-80
2021/12/04 13:26:57;;;;;;;2.35;1.00;;;;;;;;;;5083542;28;20083;-79
2021/12/04 13:29:29;;;;;;;3.25;1.00;;;;;;;;;;5088216;28;20126;-81
2021/12/04 13:31:57;;;;;;;1.92;1.00;;;;;;;;;;5083718;28;20048;-81
2021/12/04 13:34:28;;;;;;;2.63;1.00;;;;;;;;;;5079350;28;20074;-81
2021/12/04 13:36:57;;;;;;;2.17;1.00;;;;;;;;;;5087858;28;20789;-80
2021/12/04 13:39:29;;;;;;;2.17;0.93;;;;;;;;;;5090190;28;20907;-80
2021/12/04 13:41:56;;;;;;;2.75;1.00;;;;;;;;;;5102986;28;20104;-79
2021/12/04 13:44:29;;;;;;;3.28;1.20;;;;;;;;;;5103194;28;20506;-79
2021/12/04 13:47:01;;;;;;;3.50;1.00;;;;;;;;;;5103391;28;20317;-80
2021/12/04 13:49:33;;;;;;;2.60;1.48;;;;;;;;;;5092970;28;20058;-80
2021/12/04 13:52:03;;;;;;;2.13;0.90;;;;;;;;;;5084823;28;20478;-81
2021/12/04 13:54:33;;;;;;;1.83;0.77;;;;;;;;;;5080521;28;20090;-79
2021/12/04 13:56:59;;;;;;;3.63;0.90;;;;;;;;;;5099364;28;20066;-79
2021/12/04 13:59:28;;;;;;;2.72;0.80;;;;;;;;;;5103597;28;20039;-79
2021/12/04 14:01:55;;;;;;;2.33;1.10;;;;;;;;;;5101678;28;20083;-79
2021/12/04 14:04:22;;;;;;;2.00;0.82;;;;;;;;;;5095817;28;20112;-80
2021/12/04 14:06:53;;;;;;;1.63;0.70;;;;;;;;;;5085512;28;20078;-79
2021/12/04 14:09:21;;;;;;;1.33;0.60;;;;;;;;;;5083003;28;20737;-82
2021/12/04 14:11:48;;;;;;;1.85;0.88;;;;;;;;;;5082828;28;20052;-81
2021/12/04 14:14:18;;;;;;;1.58;0.70;;;;;;;;;;5080843;28;20079;-80
2021/12/04 14:16:50;;;;;;;2.20;0.60;;;;;;;;;;5081088;28;20063;-81
2021/12/04 14:19:19;;;;;;;1.65;0.65;;;;;;;;;;5081835;28;20131;-81
2021/12/04 14:21:55;;;;;;;1.83;0.70;;;;;;;;;;5080995;28;20067;-81
2021/12/04 14:24:29;;;;;;;1.13;0.50;;;;;;;;;;5082544;28;20086;-81
2021/12/04 14:26:59;;;;;;;3.85;0.70;;;;;;;;;;5081233;28;20036;-82
2021/12/04 14:29:32;;;;;;;3.28;1.20;;;;;;;;;;5081013;28;20040;-81
2021/12/04 14:32:00;;;;;;;4.38;1.70;;;;;;;;;;5081202;28;20044;-81
2021/12/04 14:34:30;;;;;;;3.05;0.80;;;;;;;;;;5083841;28;20075;-80
2021/12/04 14:37:11;;;;;;;1.57;0.60;;;;;;;;;;5084781;28;20387;-79
2021/12/04 14:39:38;;;;;;;1.20;0.55;;;;;;;;;;5085160;28;20487;-81
2021/12/04 14:42:15;;;;;;;1.52;0.75;;;;;;;;;;5083910;28;20089;-81
2021/12/04 14:44:42;;;;;;;1.13;0.50;;;;;;;;;;5079012;28;20700;-80
2021/12/04 14:47:11;;;;;;;0.95;0.52;;;;;;;;;;5078294;28;20044;-79
2021/12/04 14:49:40;;;;;;;1.30;0.60;;;;;;;;;;5077287;28;20076;-80
2021/12/04 14:52:09;;;;;;;1.83;0.57;;;;;;;;;;5076409;28;20063;-79
2021/12/04 14:54:39;;;;;;;1.55;0.88;;;;;;;;;;5077819;28;20040;-80
2021/12/04 14:57:14;;;;;;;1.20;0.52;;;;;;;;;;5078090;28;20101;-82
2021/12/04 14:59:41;;;;;;;0.95;0.50;;;;;;;;;;5077527;28;20305;-81
2021/12/04 15:02:14;;;;;;;1.35;0.50;;;;;;;;;;5078321;28;20450;-81
2021/12/04 15:04:42;;;;;;;1.58;0.57;;;;;;;;;;5076454;28;20052;-81
2021/12/04 15:07:20;;;;;;;1.30;0.60;;;;;;;;;;5078358;28;20094;-81
2021/12/04 15:09:46;;;;;;;0.98;0.52;;;;;;;;;;5076788;28;20063;-81
2021/12/04 15:12:25;;;;;;;0.90;0.50;;;;;;;;;;5077398;28;20127;-81
2021/12/04 15:14:56;;;;;;;1.90;0.60;;;;;;;;;;5077185;28;20052;-81
2021/12/04 15:17:23;;;;;;;2.13;0.70;;;;;;;;;;5076759;28;20056;-81
2021/12/04 15:19:53;;;;;;;2.35;0.80;;;;;;;;;;5074632;28;20108;-81
2021/12/04 15:22:30;;;;;;;1.80;0.60;;;;;;;;;;5076792;28;20040;-81
2021/12/04 15:24:57;;;;;;;2.28;0.80;;;;;;;;;;5077726;28;20040;-80
2021/12/04 15:27:27;;;;;;;1.50;0.60;;;;;;;;;;5078113;28;20049;-80
2021/12/04 15:29:55;;;;;;;2.33;0.77;;;;;;;;;;5078504;28;20097;-81
2021/12/04 15:32:24;;;;;;;2.88;0.95;;;;;;;;;;5078326;28;20048;-80
2021/12/04 15:34:54;;;;;;;2.30;0.90;;;;;;;;;;5087247;28;20064;-80
2021/12/04 15:37:34;;;;;;;2.03;0.80;;;;;;;;;;5084952;28;20496;-80
2021/12/04 15:40:00;;;;;;;1.23;0.70;;;;;;;;;;5080211;28;20053;-81
2021/12/04 15:42:30;;;;;;;1.52;0.70;;;;;;;;;;5081743;28;20281;-81
2021/12/04 15:45:27;;;;;;;1.63;0.68;;;;;;;;;;5079113;28;20072;-80
2021/12/04 15:48:21;;;;;;;1.63;0.70;;;;;;;;;;5078531;28;20071;-79
2021/12/04 15:51:03;;;;;;;1.52;0.80;;;;;;;;;;5079364;28;20076;-82
2021/12/04 15:53:30;;;;;;;1.20;0.65;;;;;;;;;;5082990;28;20048;-80
2021/12/04 15:55:58;;;;;;;2.67;1.33;;;;;;;;;;5082834;28;20048;-79
2021/12/04 15:58:27;;;;;;;1.95;0.70;;;;;;;;;;5082462;28;20469;-80
2021/12/04 16:00:56;;;;;;;2.17;0.80;;;;;;;;;;5082762;28;20040;-79
2021/12/04 16:03:26;;;;;;;2.63;0.88;;;;;;;;;;5083225;28;20050;-80
2021/12/04 16:05:54;;;;;;;2.88;0.85;;;;;;;;;;5080502;28;20139;-80
2021/12/04 16:08:23;;;;;;;1.83;0.80;;;;;;;;;;5079018;28;20049;-80
2021/12/04 16:10:52;;;;;;;1.35;0.70;;;;;;;;;;5080066;28;20055;-80
2021/12/04 16:13:24;;;;;;;1.88;0.90;;;;;;;;;;5079786;28;20447;-80
2021/12/04 16:15:52;;;;;;;2.88;1.20;;;;;;;;;;5079844;28;20473;-81
2021/12/04 16:18:19;;;;;;;2.30;1.10;;;;;;;;;;5079821;28;20098;-80
2021/12/04 16:20:49;;;;;;;2.13;1.05;;;;;;;;;;5079805;28;20043;-81
2021/12/04 16:23:16;;;;;;;1.98;0.82;;;;;;;;;;5082008;28;20440;-80
2021/12/04 16:25:44;;;;;;;2.72;0.80;;;;;;;;;;5082846;28;20055;-81
2021/12/04 16:28:31;;;;;;;1.40;0.52;;;;;;;;;;5084828;28;20121;-81
2021/12/04 16:31:12;;;;;;;0.65;0.60;;;;;;;;;;5087216;28;20411;-80
2021/12/04 16:33:43;;;;;;;;;;;;;;;;;;5082090;28;20354;-81
2021/12/04 16:36:20;;;;;;;2.05;0.70;;;;;;;;;;5080584;28;19924;-81
2021/12/04 16:38:48;;;;;;;1.30;0.60;;;;;;;;;;5080456;28;20051;-81
2021/12/04 16:41:16;;;;;;;3.28;0.98;;;;;;;;;;5080541;28;20044;-81
2021/12/04 16:43:46;;;;;;;1.45;0.75;;;;;;;;;;5081767;28;20048;-81
2021/12/04 16:46:16;;;;;;;1.52;0.68;;;;;;;;;;5083048;28;20439;-80
2021/12/04 16:48:47;;;;;;;3.03;0.80;;;;;;;;;;5083877;28;20052;-81
2021/12/04 16:59:34;;;;;;;1.77;0.80;;;;;;;;;;5066860;28;20052;-80
2021/12/04 17:02:03;;;;;;;1.27;0.70;;;;;;;;;;5096710;28;20063;-79
2021/12/04 17:04:30;;;;;;;1.65;0.60;;;;;;;;;;5093222;28;20045;-80
2021/12/04 17:07:01;;;;;;;1.60;0.80;;;;;;;;;;5091090;28;20036;-80
2021/12/04 17:09:28;;;;;;;2.75;0.85;;;;;;;;;;5083227;28;20044;-81
2021/12/04 17:11:56;;;;;;;1.45;0.70;;;;;;;;;;5081007;28;20105;-81
2021/12/04 17:14:25;;;;;;;1.63;0.88;;;;;;;;;;5080701;28;20078;-81
2021/12/04 17:16:53;;;;;;;1.30;0.60;;;;;;;;;;5087174;28;20048;-80
2021/12/04 17:19:20;;;;;;;1.75;0.70;;;;;;;;;;5083297;28;20071;-81
2021/12/04 17:21:49;;;;;;;2.20;0.80;;;;;;;;;;5082303;28;20097;-81
2021/12/04 17:24:18;;;;;;;4.63;1.05;;;;;;;;;;5081770;28;20041;-80
2021/12/04 17:26:47;;;;;;;3.80;1.08;;;;;;;;;;5079778;28;20093;-81
2021/12/04 17:29:15;;;;;;;2.35;0.80;;;;;;;;;;5079779;28;20098;-81
2021/12/04 17:31:44;;;;;;;2.17;0.80;;;;;;;;;;5080802;28;20082;-81
2021/12/04 17:34:14;;;;;;;1.65;0.80;;;;;;;;;;5080249;28;20360;-80
2021/12/04 17:36:41;;;;;;;2.78;0.80;;;;;;;;;;5079824;28;20392;-81
2021/12/04 17:39:11;;;;;;;2.25;0.90;;;;;;;;;;5079492;28;20052;-81
2021/12/04 17:41:39;;;;;;;2.50;1.00;;;;;;;;;;5079683;28;20142;-80